createdAt,value
2023-05-14T00:00:02.059Z,401.00
2023-05-14T00:00:16.046Z,400.00
2023-05-14T00:00:30.038Z,401.00
2023-05-14T00:00:44.027Z,400.00
2023-05-14T00:01:12.015Z,401.00
2023-05-14T00:01:26.013Z,400.00
2023-05-14T00:01:40.014Z,400.00
2023-05-14T00:01:54.043Z,400.00
2023-05-14T00:02:22.035Z,401.00
2023-05-14T00:02:36.226Z,401.00
2023-05-14T00:02:50.474Z,402.00
2023-05-14T00:03:04.701Z,401.00
2023-05-14T00:03:32.862Z,401.00
2023-05-14T00:03:46.955Z,401.00
2023-05-14T00:04:01.163Z,401.00
2023-05-14T00:04:15.257Z,401.00
2023-05-14T00:04:43.203Z,400.00
2023-05-14T00:04:57.235Z,400.00
2023-05-14T00:05:11.224Z,400.00
2023-05-14T00:05:25.205Z,399.00
2023-05-14T00:05:53.161Z,400.00
2023-05-14T00:06:07.145Z,400.00
2023-05-14T00:06:21.148Z,400.00
2023-05-14T00:06:35.151Z,400.00
2023-05-14T00:07:03.128Z,399.00
2023-05-14T00:07:17.125Z,400.00
2023-05-14T00:07:31.193Z,400.00
2023-05-14T00:07:45.187Z,400.00
2023-05-14T00:08:13.142Z,400.00
2023-05-14T00:08:27.150Z,399.00
2023-05-14T00:08:41.144Z,399.00
2023-05-14T00:08:55.115Z,399.00
2023-05-14T00:09:23.068Z,400.00
2023-05-14T00:09:37.068Z,400.00
2023-05-14T00:09:51.045Z,400.00
2023-05-14T00:10:05.063Z,401.00
2023-05-14T00:10:33.012Z,402.00
2023-05-14T00:10:47.012Z,402.00
2023-05-14T00:11:00.998Z,402.00
2023-05-14T00:11:14.976Z,402.00
2023-05-14T00:11:42.945Z,401.00
2023-05-14T00:11:56.954Z,401.00
2023-05-14T00:12:10.970Z,400.00
2023-05-14T00:12:24.984Z,400.00
2023-05-14T00:12:52.962Z,400.00
2023-05-14T00:13:06.950Z,399.00
2023-05-14T00:13:20.932Z,400.00
2023-05-14T00:13:34.934Z,400.00
2023-05-14T00:14:02.878Z,399.00
2023-05-14T00:14:16.863Z,399.00
2023-05-14T00:14:30.852Z,398.00
2023-05-14T00:14:44.859Z,398.00
2023-05-14T00:15:12.816Z,399.00
2023-05-14T00:15:26.810Z,399.00
2023-05-14T00:15:40.858Z,399.00
2023-05-14T00:15:54.891Z,398.00
2023-05-14T00:16:22.932Z,398.00
2023-05-14T00:16:36.951Z,398.00
2023-05-14T00:16:50.987Z,398.00
2023-05-14T00:17:04.985Z,397.00
2023-05-14T00:17:33.018Z,398.00
2023-05-14T00:17:47.180Z,398.00
2023-05-14T00:18:01.256Z,398.00
2023-05-14T00:18:15.339Z,398.00
2023-05-14T00:18:43.351Z,398.00
2023-05-14T00:18:57.454Z,398.00
2023-05-14T00:19:11.557Z,399.00
2023-05-14T00:19:25.578Z,398.00
2023-05-14T00:19:53.550Z,397.00
2023-05-14T00:20:07.562Z,397.00
2023-05-14T00:20:21.795Z,397.00
2023-05-14T00:20:35.920Z,397.00
2023-05-14T00:21:03.877Z,396.00
2023-05-14T00:21:17.856Z,397.00
2023-05-14T00:21:31.848Z,396.00
2023-05-14T00:21:45.837Z,396.00
2023-05-14T00:22:13.787Z,397.00
2023-05-14T00:22:27.774Z,397.00
2023-05-14T00:22:41.779Z,397.00
2023-05-14T00:22:55.759Z,397.00
2023-05-14T00:23:23.740Z,396.00
2023-05-14T00:23:37.729Z,396.00
2023-05-14T00:23:51.726Z,396.00
2023-05-14T00:24:05.732Z,395.00
2023-05-14T00:24:33.706Z,395.00
2023-05-14T00:24:47.712Z,396.00
2023-05-14T00:25:01.700Z,396.00
2023-05-14T00:25:15.686Z,396.00
2023-05-14T00:25:43.637Z,396.00
2023-05-14T00:25:57.626Z,397.00
2023-05-14T00:26:11.625Z,396.00
2023-05-14T00:26:25.604Z,397.00
2023-05-14T00:26:53.582Z,396.00
2023-05-14T00:27:07.581Z,396.00
2023-05-14T00:27:21.606Z,396.00
2023-05-14T00:27:35.596Z,396.00
2023-05-14T00:28:03.567Z,397.00
2023-05-14T00:28:17.541Z,397.00
2023-05-14T00:28:31.545Z,397.00
2023-05-14T00:28:45.533Z,397.00
2023-05-14T00:29:13.508Z,397.00
2023-05-14T00:29:27.517Z,397.00
2023-05-14T00:29:41.525Z,396.00
2023-05-14T00:29:55.538Z,397.00
2023-05-14T00:30:23.791Z,397.00
2023-05-14T00:30:37.932Z,397.00
2023-05-14T00:30:51.925Z,398.00
2023-05-14T00:31:05.948Z,398.00
2023-05-14T00:31:33.917Z,398.00
2023-05-14T00:31:48.000Z,398.00
2023-05-14T00:32:02.047Z,398.00
2023-05-14T00:32:16.028Z,399.00
2023-05-14T00:32:44.059Z,399.00
2023-05-14T00:32:58.154Z,399.00
2023-05-14T00:33:12.179Z,399.00
2023-05-14T00:33:26.178Z,399.00
2023-05-14T00:33:54.128Z,399.00
2023-05-14T00:34:08.110Z,399.00
2023-05-14T00:34:22.093Z,399.00
2023-05-14T00:34:36.091Z,400.00
2023-05-14T00:35:04.046Z,399.00
2023-05-14T00:35:18.054Z,399.00
2023-05-14T00:35:32.045Z,398.00
2023-05-14T00:35:46.044Z,398.00
2023-05-14T00:36:14.027Z,398.00
2023-05-14T00:36:28.010Z,397.00
2023-05-14T00:36:42.003Z,399.00
2023-05-14T00:36:55.991Z,399.00
2023-05-14T00:37:23.939Z,400.00
2023-05-14T00:37:37.967Z,400.00
2023-05-14T00:37:51.952Z,400.00
2023-05-14T00:38:05.949Z,400.00
2023-05-14T00:38:33.945Z,401.00
2023-05-14T00:38:47.939Z,402.00
2023-05-14T00:39:01.936Z,402.00
2023-05-14T00:39:15.941Z,403.00
2023-05-14T00:39:43.915Z,402.00
2023-05-14T00:39:57.903Z,402.00
2023-05-14T00:40:11.914Z,402.00
2023-05-14T00:40:25.999Z,402.00
2023-05-14T00:40:54.090Z,402.00
2023-05-14T00:41:08.076Z,402.00
2023-05-14T00:41:22.070Z,402.00
2023-05-14T00:41:36.079Z,403.00
2023-05-14T00:42:04.032Z,403.00
2023-05-14T00:42:18.019Z,403.00
2023-05-14T00:42:32.008Z,403.00
2023-05-14T00:42:46.002Z,402.00
2023-05-14T00:43:13.974Z,401.00
2023-05-14T00:43:27.957Z,401.00
2023-05-14T00:43:41.949Z,402.00
2023-05-14T00:43:55.943Z,402.00
2023-05-14T00:44:23.914Z,402.00
2023-05-14T00:44:37.902Z,402.00
2023-05-14T00:44:51.917Z,402.00
2023-05-14T00:45:05.907Z,403.00
2023-05-14T00:45:33.862Z,403.00
2023-05-14T00:45:47.865Z,404.00
2023-05-14T00:46:01.860Z,405.00
2023-05-14T00:46:15.892Z,405.00
2023-05-14T00:46:44.033Z,405.00
2023-05-14T00:46:58.082Z,404.00
2023-05-14T00:47:12.125Z,404.00
2023-05-14T00:47:26.142Z,404.00
2023-05-14T00:47:40.197Z,403.00
2023-05-14T00:47:54.276Z,403.00
2023-05-14T00:48:08.333Z,403.00
2023-05-14T00:48:22.423Z,403.00
2023-05-14T00:48:36.438Z,403.00
2023-05-14T00:49:04.375Z,404.00
2023-05-14T00:49:18.356Z,404.00
2023-05-14T00:49:32.355Z,404.00
2023-05-14T00:49:46.326Z,405.00
2023-05-14T00:50:14.297Z,405.00
2023-05-14T00:50:28.303Z,404.00
2023-05-14T00:50:42.288Z,405.00
2023-05-14T00:50:56.471Z,405.00
2023-05-14T00:51:24.444Z,405.00
2023-05-14T00:51:38.445Z,404.00
2023-05-14T00:51:52.451Z,404.00
2023-05-14T00:52:06.448Z,403.00
2023-05-14T00:52:34.410Z,402.00
2023-05-14T00:52:48.419Z,403.00
2023-05-14T00:53:02.419Z,403.00
2023-05-14T00:53:16.408Z,404.00
2023-05-14T00:53:44.373Z,402.00
2023-05-14T00:53:58.356Z,403.00
2023-05-14T00:54:12.353Z,402.00
2023-05-14T00:54:26.355Z,401.00
2023-05-14T00:54:54.318Z,400.00
2023-05-14T00:55:08.347Z,401.00
2023-05-14T00:55:22.376Z,401.00
2023-05-14T00:55:36.371Z,401.00
2023-05-14T00:56:04.329Z,401.00
2023-05-14T00:56:18.321Z,400.00
2023-05-14T00:56:32.307Z,400.00
2023-05-14T00:56:46.482Z,400.00
2023-05-14T00:57:14.498Z,400.00
2023-05-14T00:57:28.482Z,401.00
2023-05-14T00:57:42.473Z,401.00
2023-05-14T00:57:56.453Z,402.00
2023-05-14T00:58:24.391Z,403.00
2023-05-14T00:58:38.382Z,404.00
2023-05-14T00:58:52.353Z,404.00
2023-05-14T00:59:06.361Z,404.00
2023-05-14T00:59:34.329Z,404.00
2023-05-14T00:59:48.315Z,404.00
2023-05-14T01:00:02.300Z,404.00
2023-05-14T01:00:16.286Z,404.00
2023-05-14T01:00:44.314Z,406.00
2023-05-14T01:00:58.375Z,406.00
2023-05-14T01:01:12.466Z,406.00
2023-05-14T01:01:26.579Z,407.00
2023-05-14T01:01:54.594Z,407.00
2023-05-14T01:02:08.578Z,408.00
2023-05-14T01:02:22.727Z,408.00
2023-05-14T01:02:36.970Z,409.00
2023-05-14T01:03:05.052Z,409.00
2023-05-14T01:03:19.212Z,408.00
2023-05-14T01:03:33.359Z,409.00
2023-05-14T01:03:47.493Z,409.00
2023-05-14T01:04:15.502Z,406.00
2023-05-14T01:04:29.528Z,405.00
2023-05-14T01:04:43.577Z,404.00
2023-05-14T01:04:57.585Z,404.00
2023-05-14T01:05:25.548Z,404.00
2023-05-14T01:05:39.538Z,404.00
2023-05-14T01:05:53.529Z,405.00
2023-05-14T01:06:07.512Z,404.00
2023-05-14T01:06:35.466Z,404.00
2023-05-14T01:06:49.444Z,405.00
2023-05-14T01:07:03.446Z,405.00
2023-05-14T01:07:17.431Z,405.00
2023-05-14T01:07:45.388Z,405.00
2023-05-14T01:07:59.376Z,405.00
2023-05-14T01:08:13.345Z,406.00
2023-05-14T01:08:27.351Z,406.00
2023-05-14T01:08:55.314Z,407.00
2023-05-14T01:09:09.307Z,407.00
2023-05-14T01:09:23.302Z,408.00
2023-05-14T01:09:37.295Z,407.00
2023-05-14T01:10:05.258Z,407.00
2023-05-14T01:10:19.254Z,407.00
2023-05-14T01:10:33.280Z,406.00
2023-05-14T01:10:47.274Z,406.00
2023-05-14T01:11:15.248Z,404.00
2023-05-14T01:11:29.242Z,404.00
2023-05-14T01:11:43.217Z,403.00
2023-05-14T01:11:57.211Z,403.00
2023-05-14T01:12:25.168Z,403.00
2023-05-14T01:12:39.187Z,402.00
2023-05-14T01:12:53.184Z,402.00
2023-05-14T01:13:07.193Z,402.00
2023-05-14T01:13:35.201Z,400.00
2023-05-14T01:13:49.197Z,400.00
2023-05-14T01:14:03.199Z,400.00
2023-05-14T01:14:17.185Z,399.00
2023-05-14T01:14:45.162Z,398.00
2023-05-14T01:14:59.173Z,398.00
2023-05-14T01:15:13.188Z,398.00
2023-05-14T01:15:27.192Z,398.00
2023-05-14T01:15:55.164Z,397.00
2023-05-14T01:16:09.243Z,397.00
2023-05-14T01:16:23.342Z,397.00
2023-05-14T01:16:37.439Z,397.00
2023-05-14T01:17:05.440Z,396.00
2023-05-14T01:17:19.429Z,396.00
2023-05-14T01:17:33.443Z,396.00
2023-05-14T01:17:47.523Z,397.00
2023-05-14T01:18:01.590Z,397.00
2023-05-14T01:18:15.617Z,397.00
2023-05-14T01:18:29.711Z,397.00
2023-05-14T01:18:43.781Z,398.00
2023-05-14T01:18:57.895Z,398.00
2023-05-14T01:19:25.898Z,399.00
2023-05-14T01:19:39.883Z,400.00
2023-05-14T01:19:53.901Z,400.00
2023-05-14T01:20:07.917Z,400.00
2023-05-14T01:20:35.860Z,400.00
2023-05-14T01:20:49.850Z,400.00
2023-05-14T01:21:03.864Z,399.00
2023-05-14T01:21:17.854Z,399.00
2023-05-14T01:21:45.810Z,399.00
2023-05-14T01:21:59.797Z,399.00
2023-05-14T01:22:13.794Z,399.00
2023-05-14T01:22:27.797Z,398.00
2023-05-14T01:22:55.799Z,397.00
2023-05-14T01:23:09.789Z,397.00
2023-05-14T01:23:23.797Z,397.00
2023-05-14T01:23:37.795Z,396.00
2023-05-14T01:24:05.772Z,396.00
2023-05-14T01:24:19.755Z,396.00
2023-05-14T01:24:33.784Z,395.00
2023-05-14T01:24:47.783Z,396.00
2023-05-14T01:25:15.748Z,395.00
2023-05-14T01:25:29.762Z,395.00
2023-05-14T01:25:43.783Z,395.00
2023-05-14T01:25:57.797Z,396.00
2023-05-14T01:26:25.760Z,397.00
2023-05-14T01:26:39.790Z,397.00
2023-05-14T01:26:53.809Z,397.00
2023-05-14T01:27:07.785Z,397.00
2023-05-14T01:27:35.769Z,396.00
2023-05-14T01:27:49.770Z,396.00
2023-05-14T01:28:03.777Z,395.00
2023-05-14T01:28:17.786Z,395.00
2023-05-14T01:28:45.749Z,395.00
2023-05-14T01:28:59.729Z,395.00
2023-05-14T01:29:13.733Z,396.00
2023-05-14T01:29:27.726Z,396.00
2023-05-14T01:29:55.685Z,396.00
2023-05-14T01:30:09.695Z,396.00
2023-05-14T01:30:23.913Z,397.00
2023-05-14T01:30:38.083Z,397.00
2023-05-14T01:31:06.031Z,396.00
2023-05-14T01:31:20.060Z,396.00
2023-05-14T01:31:34.083Z,396.00
2023-05-14T01:31:48.139Z,396.00
2023-05-14T01:32:16.135Z,395.00
2023-05-14T01:32:30.216Z,395.00
2023-05-14T01:32:44.286Z,396.00
2023-05-14T01:32:58.346Z,395.00
2023-05-14T01:33:26.335Z,395.00
2023-05-14T01:33:40.377Z,394.00
2023-05-14T01:33:54.382Z,393.00
2023-05-14T01:34:08.381Z,394.00
2023-05-14T01:34:36.332Z,394.00
2023-05-14T01:34:50.319Z,395.00
2023-05-14T01:35:04.375Z,395.00
2023-05-14T01:35:18.360Z,395.00
2023-05-14T01:35:32.358Z,395.00
2023-05-14T01:35:46.351Z,395.00
2023-05-14T01:36:00.343Z,395.00
2023-05-14T01:36:14.332Z,395.00
2023-05-14T01:36:28.329Z,395.00
2023-05-14T01:36:56.286Z,394.00
2023-05-14T01:37:10.298Z,394.00
2023-05-14T01:37:24.308Z,395.00
2023-05-14T01:37:38.298Z,396.00
2023-05-14T01:38:06.312Z,397.00
2023-05-14T01:38:20.305Z,397.00
2023-05-14T01:38:34.417Z,398.00
2023-05-14T01:38:48.401Z,397.00
2023-05-14T01:39:16.358Z,397.00
2023-05-14T01:39:30.340Z,396.00
2023-05-14T01:39:44.359Z,396.00
2023-05-14T01:39:58.349Z,397.00
2023-05-14T01:40:26.433Z,397.00
2023-05-14T01:40:40.527Z,398.00
2023-05-14T01:40:54.529Z,398.00
2023-05-14T01:41:08.541Z,397.00
2023-05-14T01:41:36.522Z,398.00
2023-05-14T01:41:50.664Z,397.00
2023-05-14T01:42:04.650Z,397.00
2023-05-14T01:42:18.643Z,397.00
2023-05-14T01:42:46.680Z,396.00
2023-05-14T01:43:00.761Z,395.00
2023-05-14T01:43:14.804Z,395.00
2023-05-14T01:43:28.991Z,394.00
2023-05-14T01:43:57.005Z,395.00
2023-05-14T01:44:10.998Z,395.00
2023-05-14T01:44:25.036Z,394.00
2023-05-14T01:44:39.049Z,395.00
2023-05-14T01:45:07.012Z,396.00
2023-05-14T01:45:21.047Z,395.00
2023-05-14T01:45:35.057Z,395.00
2023-05-14T01:45:49.130Z,394.00
2023-05-14T01:46:17.140Z,394.00
2023-05-14T01:46:31.258Z,394.00
2023-05-14T01:46:45.298Z,394.00
2023-05-14T01:46:59.291Z,394.00
2023-05-14T01:47:27.355Z,392.00
2023-05-14T01:47:41.500Z,392.00
2023-05-14T01:47:55.539Z,393.00
2023-05-14T01:48:09.567Z,394.00
2023-05-14T01:48:23.615Z,395.00
2023-05-14T01:48:37.631Z,394.00
2023-05-14T01:48:51.665Z,394.00
2023-05-14T01:49:05.667Z,394.00
2023-05-14T01:49:19.660Z,395.00
2023-05-14T01:49:47.625Z,395.00
2023-05-14T01:50:01.627Z,396.00
2023-05-14T01:50:15.618Z,395.00
2023-05-14T01:50:29.613Z,395.00
2023-05-14T01:50:57.564Z,394.00
2023-05-14T01:51:11.551Z,394.00
2023-05-14T01:51:25.536Z,395.00
2023-05-14T01:51:39.513Z,394.00
2023-05-14T01:52:07.483Z,394.00
2023-05-14T01:52:21.488Z,395.00
2023-05-14T01:52:35.478Z,395.00
2023-05-14T01:52:49.476Z,395.00
2023-05-14T01:53:17.454Z,395.00
2023-05-14T01:53:31.455Z,394.00
2023-05-14T01:53:45.446Z,393.00
2023-05-14T01:53:59.445Z,393.00
2023-05-14T01:54:27.407Z,393.00
2023-05-14T01:54:41.393Z,393.00
2023-05-14T01:54:55.382Z,393.00
2023-05-14T01:55:09.373Z,393.00
2023-05-14T01:55:37.349Z,392.00
2023-05-14T01:55:51.332Z,393.00
2023-05-14T01:56:05.317Z,394.00
2023-05-14T01:56:19.313Z,394.00
2023-05-14T01:56:47.285Z,395.00
2023-05-14T01:57:01.285Z,395.00
2023-05-14T01:57:15.269Z,395.00
2023-05-14T01:57:29.267Z,395.00
2023-05-14T01:57:57.273Z,395.00
2023-05-14T01:58:11.269Z,396.00
2023-05-14T01:58:25.263Z,395.00
2023-05-14T01:58:39.254Z,395.00
2023-05-14T01:59:07.222Z,394.00
2023-05-14T01:59:21.226Z,394.00
2023-05-14T01:59:35.243Z,394.00
2023-05-14T01:59:49.239Z,394.00
2023-05-14T02:00:17.193Z,395.00
2023-05-14T02:00:31.202Z,395.00
2023-05-14T02:00:45.220Z,394.00
2023-05-14T02:00:59.260Z,394.00
2023-05-14T02:01:27.312Z,394.00
2023-05-14T02:01:41.429Z,392.00
2023-05-14T02:01:55.515Z,392.00
2023-05-14T02:02:09.581Z,392.00
2023-05-14T02:02:37.579Z,393.00
2023-05-14T02:02:51.598Z,393.00
2023-05-14T02:03:05.709Z,393.00
2023-05-14T02:03:19.794Z,393.00
2023-05-14T02:03:47.775Z,392.00
2023-05-14T02:04:01.887Z,393.00
2023-05-14T02:04:15.969Z,393.00
2023-05-14T02:04:30.043Z,393.00
2023-05-14T02:04:58.027Z,394.00
2023-05-14T02:05:12.054Z,393.00
2023-05-14T02:05:26.070Z,394.00
2023-05-14T02:05:40.072Z,394.00
2023-05-14T02:05:54.060Z,394.00
2023-05-14T02:06:08.054Z,395.00
2023-05-14T02:06:22.031Z,395.00
2023-05-14T02:06:36.021Z,395.00
2023-05-14T02:06:50.003Z,395.00
2023-05-14T02:07:17.975Z,395.00
2023-05-14T02:07:31.990Z,396.00
2023-05-14T02:07:46.000Z,396.00
2023-05-14T02:07:59.994Z,396.00
2023-05-14T02:08:27.955Z,396.00
2023-05-14T02:08:41.974Z,396.00
2023-05-14T02:08:55.962Z,395.00
2023-05-14T02:09:09.941Z,395.00
2023-05-14T02:09:37.883Z,394.00
2023-05-14T02:09:51.883Z,394.00
2023-05-14T02:10:05.894Z,393.00
2023-05-14T02:10:19.910Z,393.00
2023-05-14T02:10:47.857Z,392.00
2023-05-14T02:11:01.861Z,393.00
2023-05-14T02:11:15.868Z,392.00
2023-05-14T02:11:29.860Z,391.00
2023-05-14T02:11:57.836Z,390.00
2023-05-14T02:12:11.832Z,389.00
2023-05-14T02:12:25.816Z,389.00
2023-05-14T02:12:39.811Z,389.00
2023-05-14T02:13:07.786Z,391.00
2023-05-14T02:13:21.768Z,391.00
2023-05-14T02:13:35.754Z,391.00
2023-05-14T02:13:49.740Z,390.00
2023-05-14T02:14:17.716Z,390.00
2023-05-14T02:14:31.715Z,389.00
2023-05-14T02:14:45.696Z,391.00
2023-05-14T02:14:59.683Z,389.00
2023-05-14T02:15:27.678Z,389.00
2023-05-14T02:15:41.710Z,389.00
2023-05-14T02:15:55.747Z,389.00
2023-05-14T02:16:09.795Z,389.00
2023-05-14T02:16:37.789Z,389.00
2023-05-14T02:16:51.781Z,389.00
2023-05-14T02:17:05.797Z,388.00
2023-05-14T02:17:19.805Z,388.00
2023-05-14T02:17:47.811Z,388.00
2023-05-14T02:18:01.897Z,388.00
2023-05-14T02:18:15.961Z,388.00
2023-05-14T02:18:30.039Z,389.00
2023-05-14T02:18:58.103Z,390.00
2023-05-14T02:19:12.295Z,391.00
2023-05-14T02:19:26.421Z,391.00
2023-05-14T02:19:40.461Z,391.00
2023-05-14T02:20:08.417Z,390.00
2023-05-14T02:20:22.715Z,391.00
2023-05-14T02:20:36.855Z,391.00
2023-05-14T02:20:50.887Z,392.00
2023-05-14T02:21:18.864Z,392.00
2023-05-14T02:21:32.857Z,392.00
2023-05-14T02:21:47.446Z,392.00
2023-05-14T02:22:01.575Z,391.00
2023-05-14T02:22:29.559Z,392.00
2023-05-14T02:22:43.565Z,392.00
2023-05-14T02:22:57.578Z,393.00
2023-05-14T02:23:11.648Z,393.00
2023-05-14T02:23:41.966Z,393.00
2023-05-14T02:23:53.668Z,393.00
2023-05-14T02:24:07.663Z,394.00
2023-05-14T02:24:22.152Z,394.00
2023-05-14T02:24:50.108Z,393.00
2023-05-14T02:25:04.095Z,393.00
2023-05-14T02:25:18.100Z,393.00
2023-05-14T02:25:32.421Z,393.00
2023-05-14T02:26:00.391Z,393.00
2023-05-14T02:26:14.385Z,393.00
2023-05-14T02:26:28.382Z,393.00
2023-05-14T02:26:42.772Z,392.00
2023-05-14T02:27:10.720Z,391.00
2023-05-14T02:27:24.711Z,391.00
2023-05-14T02:27:38.708Z,392.00
2023-05-14T02:27:52.719Z,392.00
2023-05-14T02:28:20.695Z,392.00
2023-05-14T02:28:34.679Z,392.00
2023-05-14T02:28:48.678Z,393.00
2023-05-14T02:29:02.666Z,394.00
2023-05-14T02:29:30.640Z,394.00
2023-05-14T02:29:44.623Z,393.00
2023-05-14T02:29:58.609Z,393.00
2023-05-14T02:30:12.604Z,392.00
2023-05-14T02:30:40.626Z,392.00
2023-05-14T02:30:54.610Z,392.00
2023-05-14T02:31:08.628Z,393.00
2023-05-14T02:31:22.717Z,393.00
2023-05-14T02:31:37.306Z,393.00
2023-05-14T02:31:51.368Z,393.00
2023-05-14T02:32:05.362Z,393.00
2023-05-14T02:32:19.416Z,392.00
2023-05-14T02:32:33.523Z,392.00
2023-05-14T02:33:01.689Z,392.00
2023-05-14T02:33:15.831Z,391.00
2023-05-14T02:33:29.955Z,391.00
2023-05-14T02:33:44.093Z,391.00
2023-05-14T02:34:12.089Z,392.00
2023-05-14T02:34:26.116Z,392.00
2023-05-14T02:34:40.135Z,392.00
2023-05-14T02:34:54.118Z,391.00
2023-05-14T02:35:22.071Z,390.00
2023-05-14T02:35:36.070Z,390.00
2023-05-14T02:35:50.058Z,390.00
2023-05-14T02:36:04.043Z,390.00
2023-05-14T02:36:32.023Z,390.00
2023-05-14T02:36:45.995Z,390.00
2023-05-14T02:36:59.983Z,390.00
2023-05-14T02:37:13.969Z,390.00
2023-05-14T02:37:41.954Z,391.00
2023-05-14T02:37:55.960Z,392.00
2023-05-14T02:38:09.947Z,391.00
2023-05-14T02:38:23.961Z,391.00
2023-05-14T02:38:51.973Z,390.00
2023-05-14T02:39:05.946Z,390.00
2023-05-14T02:39:19.979Z,391.00
2023-05-14T02:39:33.978Z,390.00
2023-05-14T02:40:01.911Z,390.00
2023-05-14T02:40:15.905Z,389.00
2023-05-14T02:40:29.882Z,390.00
2023-05-14T02:40:43.875Z,390.00
2023-05-14T02:41:11.828Z,389.00
2023-05-14T02:41:25.815Z,390.00
2023-05-14T02:41:39.816Z,389.00
2023-05-14T02:41:53.807Z,390.00
2023-05-14T02:42:21.803Z,389.00
2023-05-14T02:42:35.852Z,389.00
2023-05-14T02:42:49.837Z,389.00
2023-05-14T02:43:03.840Z,389.00
2023-05-14T02:43:31.790Z,389.00
2023-05-14T02:43:45.781Z,389.00
2023-05-14T02:43:59.785Z,388.00
2023-05-14T02:44:13.769Z,388.00
2023-05-14T02:44:42.458Z,388.00
2023-05-14T02:44:56.457Z,388.00
2023-05-14T02:45:10.506Z,388.00
2023-05-14T02:45:24.498Z,389.00
2023-05-14T02:45:52.498Z,388.00
2023-05-14T02:46:06.489Z,388.00
2023-05-14T02:46:20.511Z,388.00
2023-05-14T02:46:34.549Z,389.00
2023-05-14T02:47:02.702Z,389.00
2023-05-14T02:47:16.799Z,389.00
2023-05-14T02:47:30.797Z,390.00
2023-05-14T02:47:44.850Z,390.00
2023-05-14T02:48:13.086Z,389.00
2023-05-14T02:48:27.199Z,388.00
2023-05-14T02:48:41.199Z,389.00
2023-05-14T02:48:55.205Z,390.00
2023-05-14T02:49:23.284Z,391.00
2023-05-14T02:49:37.301Z,391.00
2023-05-14T02:49:51.349Z,393.00
2023-05-14T02:50:05.336Z,392.00
2023-05-14T02:50:33.314Z,391.00
2023-05-14T02:50:47.298Z,391.00
2023-05-14T02:51:01.300Z,392.00
2023-05-14T02:51:15.319Z,392.00
2023-05-14T02:51:43.400Z,391.00
2023-05-14T02:51:57.406Z,391.00
2023-05-14T02:52:11.396Z,391.00
2023-05-14T02:52:25.410Z,391.00
2023-05-14T02:52:53.468Z,391.00
2023-05-14T02:53:07.455Z,391.00
2023-05-14T02:53:21.466Z,391.00
2023-05-14T02:53:35.445Z,391.00
2023-05-14T02:54:03.425Z,390.00
2023-05-14T02:54:17.418Z,389.00
2023-05-14T02:54:31.415Z,389.00
2023-05-14T02:54:45.411Z,389.00
2023-05-14T02:55:13.408Z,390.00
2023-05-14T02:55:27.413Z,390.00
2023-05-14T02:55:41.437Z,390.00
2023-05-14T02:55:55.412Z,389.00
2023-05-14T02:56:23.473Z,388.00
2023-05-14T02:56:37.508Z,388.00
2023-05-14T02:56:51.532Z,388.00
2023-05-14T02:57:05.545Z,389.00
2023-05-14T02:57:19.556Z,388.00
2023-05-14T02:57:33.557Z,389.00
2023-05-14T02:57:47.572Z,390.00
2023-05-14T02:58:01.573Z,389.00
2023-05-14T02:58:15.552Z,389.00
2023-05-14T02:58:43.528Z,388.00
2023-05-14T02:58:57.535Z,389.00
2023-05-14T02:59:12.108Z,388.00
2023-05-14T02:59:26.448Z,389.00
2023-05-14T02:59:54.956Z,388.00
2023-05-14T03:00:09.265Z,388.00
2023-05-14T03:00:23.957Z,388.00
2023-05-14T03:00:38.577Z,388.00
2023-05-14T03:01:06.802Z,389.00
2023-05-14T03:01:21.363Z,389.00
2023-05-14T03:01:35.837Z,389.00
2023-05-14T03:01:50.192Z,389.00
2023-05-14T03:02:18.695Z,390.00
2023-05-14T03:02:32.962Z,390.00
2023-05-14T03:02:47.455Z,390.00
2023-05-14T03:03:02.137Z,391.00
2023-05-14T03:03:30.726Z,391.00
2023-05-14T03:03:45.120Z,391.00
2023-05-14T03:03:59.472Z,390.00
2023-05-14T03:04:13.461Z,389.00
2023-05-14T03:04:41.450Z,388.00
2023-05-14T03:04:55.471Z,389.00
2023-05-14T03:05:09.462Z,388.00
2023-05-14T03:05:23.461Z,389.00
2023-05-14T03:05:51.446Z,390.00
2023-05-14T03:06:05.426Z,390.00
2023-05-14T03:06:19.414Z,391.00
2023-05-14T03:06:33.404Z,391.00
2023-05-14T03:07:01.395Z,390.00
2023-05-14T03:07:15.404Z,390.00
2023-05-14T03:07:29.374Z,390.00
2023-05-14T03:07:43.370Z,390.00
2023-05-14T03:08:11.348Z,388.00
2023-05-14T03:08:25.966Z,388.00
2023-05-14T03:08:39.960Z,388.00
2023-05-14T03:08:53.974Z,388.00
2023-05-14T03:09:21.963Z,388.00
2023-05-14T03:09:38.089Z,389.00
2023-05-14T03:09:49.875Z,389.00
2023-05-14T03:10:03.874Z,389.00
2023-05-14T03:10:31.868Z,387.00
2023-05-14T03:10:45.860Z,387.00
2023-05-14T03:10:59.866Z,387.00
2023-05-14T03:11:13.865Z,387.00
2023-05-14T03:11:41.861Z,386.00
2023-05-14T03:11:55.853Z,386.00
2023-05-14T03:12:09.829Z,385.00
2023-05-14T03:12:23.825Z,386.00
2023-05-14T03:12:51.803Z,386.00
2023-05-14T03:13:05.796Z,386.00
2023-05-14T03:13:19.798Z,386.00
2023-05-14T03:13:33.777Z,386.00
2023-05-14T03:13:47.752Z,386.00
2023-05-14T03:14:01.730Z,386.00
2023-05-14T03:14:15.714Z,386.00
2023-05-14T03:14:29.691Z,385.00
2023-05-14T03:14:43.679Z,386.00
2023-05-14T03:15:11.623Z,385.00
2023-05-14T03:15:25.606Z,384.00
2023-05-14T03:15:39.599Z,384.00
2023-05-14T03:15:53.585Z,384.00
2023-05-14T03:16:21.571Z,384.00
2023-05-14T03:16:35.621Z,384.00
2023-05-14T03:16:49.739Z,384.00
2023-05-14T03:17:03.890Z,383.00
2023-05-14T03:17:32.019Z,384.00
2023-05-14T03:17:46.092Z,385.00
2023-05-14T03:18:00.147Z,385.00
2023-05-14T03:18:14.189Z,385.00
2023-05-14T03:18:42.200Z,385.00
2023-05-14T03:18:56.248Z,386.00
2023-05-14T03:19:10.447Z,387.00
2023-05-14T03:19:24.541Z,387.00
2023-05-14T03:19:52.559Z,387.00
2023-05-14T03:20:06.564Z,387.00
2023-05-14T03:20:20.557Z,387.00
2023-05-14T03:20:34.541Z,387.00
2023-05-14T03:21:02.535Z,388.00
2023-05-14T03:21:16.525Z,389.00
2023-05-14T03:21:30.521Z,389.00
2023-05-14T03:21:44.521Z,389.00
2023-05-14T03:22:12.475Z,389.00
2023-05-14T03:22:26.463Z,390.00
2023-05-14T03:22:40.453Z,390.00
2023-05-14T03:22:54.442Z,390.00
2023-05-14T03:23:22.454Z,389.00
2023-05-14T03:23:36.450Z,388.00
2023-05-14T03:23:50.433Z,388.00
2023-05-14T03:24:04.434Z,389.00
2023-05-14T03:24:32.425Z,388.00
2023-05-14T03:24:46.417Z,388.00
2023-05-14T03:25:00.414Z,388.00
2023-05-14T03:25:14.402Z,388.00
2023-05-14T03:25:42.387Z,387.00
2023-05-14T03:25:56.387Z,388.00
2023-05-14T03:26:10.380Z,388.00
2023-05-14T03:26:24.394Z,388.00
2023-05-14T03:26:52.376Z,387.00
2023-05-14T03:27:06.366Z,387.00
2023-05-14T03:27:20.354Z,387.00
2023-05-14T03:27:34.330Z,386.00
2023-05-14T03:28:02.311Z,385.00
2023-05-14T03:28:16.309Z,385.00
2023-05-14T03:28:30.298Z,385.00
2023-05-14T03:28:44.283Z,386.00
2023-05-14T03:29:12.250Z,385.00
2023-05-14T03:29:26.260Z,386.00
2023-05-14T03:29:40.255Z,386.00
2023-05-14T03:29:54.265Z,385.00
2023-05-14T03:30:22.517Z,385.00
2023-05-14T03:30:36.717Z,386.00
2023-05-14T03:30:50.770Z,387.00
2023-05-14T03:31:04.914Z,387.00
2023-05-14T03:31:19.120Z,387.00
2023-05-14T03:31:33.195Z,387.00
2023-05-14T03:31:47.180Z,387.00
2023-05-14T03:32:01.206Z,387.00
2023-05-14T03:32:15.194Z,387.00
2023-05-14T03:32:43.214Z,388.00
2023-05-14T03:32:57.246Z,389.00
2023-05-14T03:33:11.246Z,390.00
2023-05-14T03:33:25.233Z,390.00
2023-05-14T03:33:53.216Z,390.00
2023-05-14T03:34:07.206Z,389.00
2023-05-14T03:34:21.178Z,390.00
2023-05-14T03:34:35.173Z,390.00
2023-05-14T03:35:03.157Z,390.00
2023-05-14T03:35:17.148Z,390.00
2023-05-14T03:35:31.137Z,389.00
2023-05-14T03:35:45.154Z,389.00